Aeroporto :







RITROVATECI SU...

 
LOGIN :

Iscrizione | Disclaimer

   EN    FR    IT 

 









Sommario :    VFR   VFR Marginale   IFR   IFR Intensivo   IFR Molto Intensivo
Visibilità : 
Base nubi : 
>= 8 km
>= 3000ft
5 / 8 km
1000 / 3000 ft
1500m / 5 km
500 / 1000 ft
800 / 1500m
200 / 500 ft
< 800m
< 200 ft
Simboli :   Temporali  Nebbia  Neve Forte  Precipitazioni Forti  Vento > 20 kt






- Altitudine del aeroporto : 234 ft
- Codice IATA : YMN


CYFT - Makkovik

ULTIMO METAR :
  • 092000Z 08005KT 020V130 15SM SCT028TCU SCT220 22/11 A2982 RMK TCU3CI1 LAST STFD OBS/NEXT 100900Z SLP102 DENSITY ALT 1300FT

METARs OBSOLETI :
  • 091900Z 03009KT 15SM SCT028TCU 22/10 A2979 RMK TCU3 SLP090 DENSITY ALT 1300FT
  • 091800Z 03009KT 15SM SCT028TCU SCT220 25/11 A2977 RMK TCU3CI1 CI TR SLP085 DENSITY ALT 1600FT
  • 091753Z 02007KT 010V130 15SM FEW028TCU FEW220 25/12 A2977 RMK TCU2CI1 CI TR SLP085 DENSITY ALT 1600FT
  • 091717Z 04005KT 15SM TS SCT028CB SCT220 24/13 A2977 RMK CB3CI1 CI TR DIST THUNDER S SLP083 DENSITY ALT 1500FT
  • 091700Z 04006KT 15SM SCT028TCU SCT220 23/12 A2977 RMK TCU3CI1 CI TR SLP083 DENSITY ALT 1500FT

TAF N/A
FIR CZQX / America del Nord



MetMap, La meteo Aeronautica in un colpo d'occhio ! - Copyright ORBIFLY Dicembre 2007 - Disclaimer

ORBIFLY MET'MAP TEAM :

Programmazione e sviluppo : Alexandra Zaïnal
Concezione : Baudouin d'Aumeries
Aiuto per la programmazione : Marc-Olivier Méhu
Supporto tecnico e logistico : Manuel Goepfert
Aiuto per la traduzione : Arnaldo La Scala

Contatto : metmap@orbifly.com




FONTI E CREDITI :

   NOAA